createdAt,value
2023-02-19T00:01:40.556Z,7.90
2023-02-19T00:04:42.635Z,7.60
2023-02-19T00:07:44.916Z,6.47
2023-02-19T00:10:46.949Z,6.73
2023-02-19T00:13:51.477Z,9.87
2023-02-19T00:16:53.432Z,6.80
2023-02-19T00:19:55.693Z,7.40
2023-02-19T00:22:57.663Z,7.87
2023-02-19T00:26:18.138Z,5.77
2023-02-19T00:29:21.870Z,8.90
2023-02-19T00:32:24.131Z,6.50
2023-02-19T00:35:26.170Z,6.37
2023-02-19T00:38:28.892Z,5.03
2023-02-19T00:41:30.920Z,5.17
2023-02-19T00:44:33.216Z,5.13
2023-02-19T00:47:35.319Z,7.03
2023-02-19T00:50:37.589Z,6.87
2023-02-19T00:53:39.672Z,6.47
2023-02-19T00:56:42.079Z,6.43
2023-02-19T00:59:44.035Z,5.97
2023-02-19T01:02:46.247Z,5.77
2023-02-19T01:05:49.258Z,8.23
2023-02-19T01:08:51.618Z,6.47
2023-02-19T01:11:53.613Z,11.17
2023-02-19T01:14:55.852Z,7.67
2023-02-19T01:17:57.925Z,9.40
2023-02-19T01:21:00.446Z,7.43
2023-02-19T01:24:02.443Z,6.27
2023-02-19T01:27:04.715Z,6.07
2023-02-19T01:30:07.178Z,8.57
2023-02-19T01:33:10.256Z,9.70
2023-02-19T01:36:12.488Z,5.57
2023-02-19T01:39:14.712Z,7.47
2023-02-19T01:42:17.192Z,8.80
2023-02-19T01:45:26.667Z,5.93
2023-02-19T01:48:38.312Z,6.93
2023-02-19T01:52:12.466Z,6.73
2023-02-19T01:55:14.507Z,7.53
2023-02-19T01:58:17.097Z,8.93
2023-02-19T02:01:19.213Z,5.83
2023-02-19T02:04:21.453Z,5.73
2023-02-19T02:07:41.988Z,6.93
2023-02-19T02:10:44.892Z,8.63
2023-02-19T02:13:46.858Z,4.50
2023-02-19T02:16:58.267Z,6.57
2023-02-19T02:20:15.449Z,7.23
2023-02-19T02:23:36.162Z,7.73
2023-02-19T02:27:20.871Z,9.37
2023-02-19T02:30:38.075Z,7.20
2023-02-19T02:33:43.508Z,9.67
2023-02-19T02:36:50.410Z,8.60
2023-02-19T02:39:53.845Z,9.57
2023-02-19T02:42:58.779Z,7.80
2023-02-19T02:46:00.933Z,8.40
2023-02-19T02:49:12.921Z,7.90
2023-02-19T02:52:37.776Z,9.80
2023-02-19T02:55:43.797Z,6.20
2023-02-19T02:58:48.662Z,7.40
2023-02-19T03:02:15.049Z,5.77
2023-02-19T03:05:41.437Z,6.63
2023-02-19T03:08:57.470Z,8.93
2023-02-19T03:12:22.117Z,6.23
2023-02-19T03:15:47.878Z,8.50
2023-02-19T03:19:12.988Z,12.50
2023-02-19T03:22:20.354Z,8.47
2023-02-19T03:25:45.154Z,14.03
2023-02-19T03:29:08.756Z,6.50
2023-02-19T03:32:34.409Z,6.60
2023-02-19T03:36:07.883Z,6.33
2023-02-19T03:39:13.022Z,9.30
2023-02-19T03:42:47.949Z,7.27
2023-02-19T03:45:52.951Z,11.43
2023-02-19T03:49:24.714Z,7.07
2023-02-19T03:52:44.508Z,7.93
2023-02-19T03:56:06.050Z,7.03
2023-02-19T03:59:34.597Z,6.77
2023-02-19T04:03:17.343Z,13.97
2023-02-19T04:06:27.314Z,8.23
2023-02-19T04:09:37.675Z,7.93
2023-02-19T04:12:42.466Z,7.23
2023-02-19T04:15:47.135Z,8.00
2023-02-19T04:18:54.569Z,10.23
2023-02-19T04:21:58.480Z,10.70
2023-02-19T04:25:00.925Z,9.63
2023-02-19T04:28:04.751Z,7.63
2023-02-19T04:31:07.347Z,6.60
2023-02-19T04:34:09.632Z,7.23
2023-02-19T04:37:11.879Z,6.50
2023-02-19T04:40:14.135Z,6.80
2023-02-19T04:43:16.115Z,7.87
2023-02-19T04:46:18.494Z,9.27
2023-02-19T04:49:20.602Z,8.10
2023-02-19T04:52:22.917Z,8.20
2023-02-19T04:55:24.885Z,8.20
2023-02-19T04:58:27.106Z,9.07
2023-02-19T05:01:29.268Z,9.13
2023-02-19T05:04:31.604Z,8.60
2023-02-19T05:07:34.173Z,7.77
2023-02-19T05:10:36.498Z,10.30
2023-02-19T05:13:39.809Z,13.37
2023-02-19T05:16:42.067Z,8.17
2023-02-19T05:19:44.005Z,10.13
2023-02-19T05:22:46.248Z,9.73
2023-02-19T05:25:49.225Z,15.10
2023-02-19T05:28:53.268Z,11.67
2023-02-19T05:31:55.365Z,12.27
2023-02-19T05:34:57.704Z,8.27
2023-02-19T05:38:00.224Z,10.53
2023-02-19T05:41:18.712Z,9.57
2023-02-19T05:44:20.800Z,15.57
2023-02-19T05:47:22.993Z,12.03
2023-02-19T05:50:25.205Z,10.40
2023-02-19T05:53:27.413Z,13.27
2023-02-19T05:56:41.258Z,14.07
2023-02-19T05:59:43.528Z,12.00
2023-02-19T06:02:46.247Z,12.27
2023-02-19T06:05:49.121Z,12.27
2023-02-19T06:08:51.776Z,12.60
2023-02-19T06:11:54.002Z,13.10
2023-02-19T06:14:55.966Z,12.53
2023-02-19T06:17:58.319Z,12.67
2023-02-19T06:21:04.404Z,13.33
2023-02-19T06:24:08.843Z,12.53
2023-02-19T06:27:11.366Z,12.33
2023-02-19T06:30:13.986Z,12.10
2023-02-19T06:33:15.944Z,13.43
2023-02-19T06:36:20.138Z,10.90
2023-02-19T06:39:22.208Z,12.03
2023-02-19T06:42:24.490Z,12.67
2023-02-19T06:45:26.512Z,12.77
2023-02-19T06:48:30.486Z,12.90
2023-02-19T06:51:32.931Z,13.27
2023-02-19T06:54:35.256Z,13.67
2023-02-19T06:57:37.286Z,18.50
2023-02-19T07:00:39.564Z,12.27
2023-02-19T07:03:41.611Z,17.83
2023-02-19T07:06:44.063Z,15.83
2023-02-19T07:09:46.080Z,16.37
2023-02-19T07:12:48.293Z,11.97
2023-02-19T07:15:52.179Z,13.63
2023-02-19T07:18:58.080Z,13.40
2023-02-19T07:22:00.145Z,17.30
2023-02-19T07:25:02.367Z,16.03
2023-02-19T07:28:04.572Z,12.37
2023-02-19T07:31:06.965Z,14.17
2023-02-19T07:34:08.998Z,13.53
2023-02-19T07:37:11.264Z,15.07
2023-02-19T07:40:13.312Z,16.27
2023-02-19T07:43:15.573Z,14.03
2023-02-19T07:46:17.657Z,14.50
2023-02-19T07:49:20.036Z,16.13
2023-02-19T07:52:22.066Z,18.33
2023-02-19T07:55:24.309Z,13.07
2023-02-19T07:58:26.322Z,11.57
2023-02-19T08:01:47.389Z,15.73
2023-02-19T08:04:49.383Z,16.50
2023-02-19T08:07:52.211Z,13.17
2023-02-19T08:15:14.646Z,14.80
2023-02-19T08:18:32.261Z,15.63
2023-02-19T08:28:55.468Z,10.90
2023-02-19T08:31:57.503Z,12.03
2023-02-19T08:35:00.709Z,11.77
2023-02-19T08:38:04.332Z,9.93
2023-02-19T08:41:15.909Z,12.47
2023-02-19T08:44:17.900Z,9.63
2023-02-19T08:47:20.196Z,12.10
2023-02-19T08:50:22.452Z,10.73
2023-02-19T08:53:25.552Z,9.07
2023-02-19T08:56:27.665Z,13.23
2023-02-19T08:59:29.919Z,19.70
2023-02-19T09:02:32.088Z,9.73
2023-02-19T09:05:35.094Z,8.70
2023-02-19T09:08:37.160Z,6.90
2023-02-19T09:11:40.087Z,10.83
2023-02-19T09:14:42.113Z,8.83
2023-02-19T09:17:44.448Z,9.33
2023-02-19T09:20:46.541Z,7.67
2023-02-19T09:23:48.761Z,11.00
2023-02-19T09:26:51.764Z,8.23
2023-02-19T09:29:55.111Z,10.20
2023-02-19T09:32:57.332Z,6.90
2023-02-19T09:36:00.741Z,8.37
2023-02-19T09:39:04.539Z,9.50
2023-02-19T09:42:17.348Z,12.50
2023-02-19T09:45:24.221Z,15.67
2023-02-19T09:48:27.580Z,11.60
2023-02-19T09:51:31.580Z,10.57
2023-02-19T09:54:36.253Z,6.67
2023-02-19T09:57:38.792Z,6.00
2023-02-19T10:00:41.353Z,7.90
2023-02-19T10:03:48.654Z,9.67
2023-02-19T10:06:52.586Z,6.77
2023-02-19T10:10:01.151Z,11.20
2023-02-19T10:13:13.439Z,7.87
2023-02-19T10:16:24.818Z,5.13
2023-02-19T10:19:27.228Z,7.40
2023-02-19T10:22:29.760Z,10.07
2023-02-19T10:25:34.026Z,10.00
2023-02-19T10:28:37.817Z,7.53
2023-02-19T10:31:40.276Z,7.67
2023-02-19T10:34:42.343Z,7.83
2023-02-19T10:37:50.734Z,4.80
2023-02-19T10:41:05.008Z,8.43
2023-02-19T10:44:31.764Z,9.00
2023-02-19T10:47:37.148Z,4.93
2023-02-19T10:50:49.331Z,6.30
2023-02-19T10:54:05.647Z,7.30
2023-02-19T10:57:29.991Z,6.63
2023-02-19T11:00:32.484Z,7.10
2023-02-19T11:03:35.045Z,7.83
2023-02-19T11:06:37.093Z,6.77
2023-02-19T11:09:42.919Z,8.40
2023-02-19T11:12:49.192Z,4.83
2023-02-19T11:15:55.870Z,9.63
2023-02-19T11:18:58.169Z,10.97
2023-02-19T11:22:01.938Z,9.77
2023-02-19T11:25:17.144Z,4.97
2023-02-19T11:28:31.457Z,6.53
2023-02-19T11:31:36.054Z,4.47
2023-02-19T11:34:39.296Z,3.07
2023-02-19T11:37:55.845Z,5.37
2023-02-19T11:41:10.402Z,5.53
2023-02-19T11:44:37.026Z,5.20
2023-02-19T11:48:23.127Z,5.70
2023-02-19T11:51:34.271Z,9.40
2023-02-19T11:54:42.437Z,5.20
2023-02-19T11:57:55.451Z,4.83
2023-02-19T12:01:11.639Z,4.90
2023-02-19T12:04:37.732Z,5.37
2023-02-19T12:07:49.957Z,5.97
2023-02-19T12:11:23.863Z,5.13
2023-02-19T12:15:02.584Z,6.73
2023-02-19T12:18:41.918Z,6.57
2023-02-19T12:22:08.788Z,13.13
2023-02-19T12:25:47.477Z,17.90
2023-02-19T12:29:01.683Z,23.47
2023-02-19T12:32:15.480Z,6.93
2023-02-19T12:35:36.478Z,8.83
2023-02-19T12:38:53.336Z,10.67
2023-02-19T12:42:13.950Z,14.53
2023-02-19T12:45:17.480Z,10.63
2023-02-19T12:49:00.176Z,7.30
2023-02-19T12:52:39.730Z,6.00
2023-02-19T12:55:46.682Z,8.33
2023-02-19T12:58:53.770Z,3.77
2023-02-19T13:02:14.948Z,5.40
2023-02-19T13:05:40.435Z,4.63
2023-02-19T13:09:07.360Z,9.73
2023-02-19T13:12:17.622Z,6.67
2023-02-19T13:15:43.735Z,6.57
2023-02-19T13:18:48.625Z,6.60
2023-02-19T13:22:35.735Z,3.47
2023-02-19T13:26:17.073Z,6.20
2023-02-19T13:29:47.735Z,22.60
2023-02-19T13:33:21.691Z,9.13
2023-02-19T13:36:31.477Z,4.40
2023-02-19T13:39:37.868Z,3.93
2023-02-19T13:42:40.756Z,9.13
2023-02-19T13:45:52.008Z,5.47
2023-02-19T13:49:28.533Z,3.50
2023-02-19T13:52:30.590Z,4.17
2023-02-19T13:55:59.813Z,4.10
2023-02-19T13:59:11.379Z,4.40
2023-02-19T14:02:30.332Z,3.33
2023-02-19T14:06:01.562Z,6.53
2023-02-19T14:09:03.926Z,4.27
2023-02-19T14:12:16.105Z,4.67
2023-02-19T14:15:37.033Z,6.33
2023-02-19T14:18:46.636Z,8.17
2023-02-19T14:21:48.972Z,4.37
2023-02-19T14:24:55.619Z,4.43
2023-02-19T14:28:15.144Z,5.73
2023-02-19T14:31:30.530Z,5.00
2023-02-19T14:34:33.396Z,4.63
2023-02-19T14:37:35.581Z,3.97
2023-02-19T14:40:43.784Z,6.47
2023-02-19T14:43:48.968Z,4.97
2023-02-19T14:47:02.976Z,4.50
2023-02-19T14:50:15.106Z,9.60
2023-02-19T14:53:18.019Z,4.37
2023-02-19T14:56:30.649Z,4.47
2023-02-19T14:59:33.889Z,5.97
2023-02-19T15:02:42.967Z,4.90
2023-02-19T15:05:45.456Z,6.17
2023-02-19T15:08:49.882Z,5.83
2023-02-19T15:11:53.817Z,5.03
2023-02-19T15:14:59.728Z,7.07
2023-02-19T15:18:03.225Z,4.87
2023-02-19T15:21:10.877Z,5.27
2023-02-19T15:24:16.757Z,4.37
2023-02-19T15:27:24.332Z,2.33
2023-02-19T15:30:31.914Z,4.10
2023-02-19T15:33:34.815Z,3.57
2023-02-19T15:36:37.249Z,6.10
2023-02-19T15:39:43.552Z,4.60
2023-02-19T15:42:47.572Z,4.23
2023-02-19T15:45:57.281Z,4.23
2023-02-19T15:49:17.730Z,6.27
2023-02-19T15:52:32.357Z,19.10
2023-02-19T15:55:47.798Z,7.70
2023-02-19T15:59:06.128Z,5.07
2023-02-19T16:02:13.477Z,6.40
2023-02-19T16:05:24.358Z,7.77
2023-02-19T16:08:35.319Z,6.70
2023-02-19T16:11:39.723Z,7.63
2023-02-19T16:14:42.055Z,7.70
2023-02-19T16:17:47.005Z,7.00
2023-02-19T16:20:49.361Z,7.27
2023-02-19T16:23:56.944Z,9.37
2023-02-19T16:26:59.665Z,7.63
2023-02-19T16:30:28.080Z,5.33
2023-02-19T16:33:48.673Z,5.37
2023-02-19T16:36:50.763Z,7.03
2023-02-19T16:40:08.411Z,7.10
2023-02-19T16:43:31.333Z,6.77
2023-02-19T16:46:33.683Z,8.03
2023-02-19T16:49:37.418Z,13.47
2023-02-19T16:53:01.076Z,9.87
2023-02-19T16:56:03.178Z,14.87
2023-02-19T16:59:08.607Z,10.77
2023-02-19T17:02:19.129Z,6.63
2023-02-19T17:05:23.760Z,13.73
2023-02-19T17:08:33.748Z,9.93
2023-02-19T17:11:37.882Z,10.43
2023-02-19T17:14:40.035Z,10.13
2023-02-19T17:17:42.656Z,10.57
2023-02-19T17:21:08.619Z,7.33
2023-02-19T17:24:12.886Z,12.10
2023-02-19T17:27:16.049Z,6.33
2023-02-19T17:30:25.531Z,9.90
2023-02-19T17:33:27.631Z,11.23
2023-02-19T17:36:31.966Z,9.27
2023-02-19T17:39:37.090Z,16.17
2023-02-19T17:42:39.397Z,11.47
2023-02-19T17:45:41.702Z,12.13
2023-02-19T17:48:47.035Z,14.63
2023-02-19T17:51:49.155Z,10.33
2023-02-19T17:54:51.395Z,12.87
2023-02-19T17:58:56.836Z,14.83
2023-02-19T18:02:08.580Z,11.23
2023-02-19T18:05:20.023Z,10.80
2023-02-19T18:08:22.292Z,10.50
2023-02-19T18:11:40.770Z,11.90
2023-02-19T18:15:12.223Z,13.73
2023-02-19T18:18:32.201Z,14.67
2023-02-19T18:22:09.601Z,13.93
2023-02-19T18:26:15.657Z,18.60
2023-02-19T18:29:22.845Z,21.37
2023-02-19T18:33:22.772Z,21.37
2023-02-19T18:36:20.809Z,20.90
2023-02-19T18:39:39.578Z,19.77
2023-02-19T18:43:46.469Z,20.07
2023-02-19T18:47:07.645Z,19.47
2023-02-19T18:50:10.713Z,21.53
2023-02-19T18:53:18.353Z,24.77
2023-02-19T18:56:25.708Z,19.87
2023-02-19T18:59:33.754Z,23.00
2023-02-19T19:02:51.249Z,27.93
2023-02-19T19:06:01.573Z,28.30
2023-02-19T19:09:26.300Z,26.80
2023-02-19T19:12:34.908Z,26.77
2023-02-19T19:15:51.986Z,42.20
2023-02-19T19:19:04.276Z,22.90
2023-02-19T19:22:30.720Z,21.77
2023-02-19T19:26:21.463Z,26.37
2023-02-19T19:30:13.255Z,26.40
2023-02-19T19:34:24.425Z,82.07
2023-02-19T19:42:17.390Z,24.23
2023-02-19T19:45:24.965Z,28.17
2023-02-19T19:48:30.508Z,23.93
2023-02-19T19:51:58.711Z,22.77
2023-02-19T19:55:10.709Z,22.87
2023-02-19T19:58:12.747Z,19.23
2023-02-19T20:01:20.827Z,15.43
2023-02-19T20:04:28.249Z,14.00
2023-02-19T20:07:32.490Z,11.77
2023-02-19T20:10:34.484Z,14.77
2023-02-19T20:13:37.790Z,10.37
2023-02-19T20:16:47.603Z,11.23
2023-02-19T20:19:50.062Z,17.63
2023-02-19T20:22:52.660Z,13.67
2023-02-19T20:25:59.507Z,11.40
2023-02-19T20:29:03.804Z,14.37
2023-02-19T20:32:06.688Z,15.37
2023-02-19T20:35:19.083Z,15.10
2023-02-19T20:38:26.726Z,13.47
2023-02-19T20:41:28.866Z,11.87
2023-02-19T20:44:31.210Z,12.03
2023-02-19T20:47:33.274Z,8.87
2023-02-19T20:50:36.120Z,9.10
2023-02-19T20:53:54.153Z,10.80
2023-02-19T20:57:06.202Z,6.90
2023-02-19T21:00:11.182Z,8.23
2023-02-19T21:03:13.496Z,13.17
2023-02-19T21:06:18.414Z,8.63
2023-02-19T21:09:21.978Z,8.17
2023-02-19T21:12:24.019Z,8.67
2023-02-19T21:15:34.364Z,9.27
2023-02-19T21:18:40.185Z,8.40
2023-02-19T21:21:45.215Z,8.57
2023-02-19T21:24:51.989Z,8.70
2023-02-19T21:27:54.525Z,7.90
2023-02-19T21:31:20.105Z,9.63
2023-02-19T21:34:34.784Z,6.13
2023-02-19T21:41:31.930Z,7.80
2023-02-19T21:44:34.333Z,5.97
2023-02-19T21:47:36.374Z,7.57
2023-02-19T21:50:47.184Z,9.17
2023-02-19T21:53:49.682Z,7.43
2023-02-19T21:56:54.191Z,7.40
2023-02-19T21:59:56.395Z,11.33
2023-02-19T22:02:58.813Z,5.73
2023-02-19T22:06:03.301Z,6.03
2023-02-19T22:09:09.691Z,9.77
2023-02-19T22:12:11.746Z,6.57
2023-02-19T22:15:15.201Z,4.40
2023-02-19T22:18:17.303Z,8.97
2023-02-19T22:21:22.711Z,6.27
2023-02-19T22:24:25.178Z,10.47
2023-02-19T22:27:29.188Z,6.80
2023-02-19T22:30:31.705Z,4.83
2023-02-19T22:33:35.477Z,7.23
2023-02-19T22:36:37.566Z,7.83
2023-02-19T22:39:39.807Z,7.23
2023-02-19T22:42:42.946Z,5.70
2023-02-19T22:45:45.788Z,5.20
2023-02-19T22:48:48.169Z,4.83
2023-02-19T22:52:10.099Z,5.77
2023-02-19T22:55:12.357Z,7.03
2023-02-19T22:58:14.626Z,7.07
2023-02-19T23:01:16.807Z,6.97
2023-02-19T23:04:21.446Z,5.40
2023-02-19T23:07:23.732Z,6.97
2023-02-19T23:10:27.053Z,6.50
2023-02-19T23:13:29.058Z,7.97
2023-02-19T23:16:35.750Z,7.90
2023-02-19T23:19:38.024Z,9.00
2023-02-19T23:22:40.570Z,6.07
2023-02-19T23:25:42.638Z,4.43
2023-02-19T23:28:45.544Z,5.43
2023-02-19T23:31:47.738Z,5.07
2023-02-19T23:34:52.945Z,5.90
2023-02-19T23:37:55.855Z,6.80
2023-02-19T23:40:58.825Z,4.70
2023-02-19T23:44:00.948Z,7.30
2023-02-19T23:47:03.186Z,8.10
2023-02-19T23:50:05.747Z,8.17
2023-02-19T23:53:08.112Z,6.63
2023-02-19T23:56:10.342Z,7.87
2023-02-19T23:59:13.220Z,8.40
